Oak Hill, WV

3:34 PM EDT on April 19, 2015 (GMT -0400)
F.I.T. - Oyler Ave. | | Change Station
CLOSE
Current Station
Personal Weather Station
Location: Oak Hill, WV
Elevation: 1988 ft
Nearby Weather Stations

Elev 1988 ft 37.99 °N, 81.15 °W | Updated 23 minutes ago

Mostly Cloudy
Mostly Cloudy
61.4 °F
Feels Like 61.4 °F
N
0.0
Wind Variable Wind from SE
Gusts 0.0 mph

Today
High -- | Low -- °F
--% Chance of Precip.
Yesterday
High -- | Low -- °F
Precip. -- in
6:43 AM 8:04 PM
New Moon, 2% visible
Pressure 29.83 in
Visibility 9.0 miles
Clouds Few 1800 ft
Few 6000 ft
Overcast 9000 ft
Dew Point 53 °F
Humidity 75%
Rainfall 0.02 in
Snow Depth Not available.
UV 3 out of 12
Pollen 6.10 out of 12
Air Quality Not available.
Flu Activity Sporadic
METAR KBKW 191851Z AUTO 13020G30KT 9SM -RA FEW018 FEW060 OVC090 15/12 A2988 RMK AO2 PK WND 11030/1847 SLP099 P0001 T01500117

More Conditions Fewer Conditions

Pressure 29.83 in
Visibility 9.0 miles
Clouds Few 1800 ft
Few 6000 ft
Overcast 9000 ft
Dew Point 53 °F
Humidity 75%
Rainfall 0.02 in
Snow Depth Not available.
UV 3 out of 12
Pollen 6.10 out of 12
Air Quality Not available.
Flu Activity Sporadic
METAR KBKW 191851Z AUTO 13020G30KT 9SM -RA FEW018 FEW060 OVC090 15/12 A2988 RMK AO2 PK WND 11030/1847 SLP099 P0001 T01500117

More Conditions Fewer Conditions

10-Day Weather Forecast

Almanac

Astronomy

Apr. 19, 2015 Rise Set
Actual Time
Civil Twilight
Nautical Twilight
Astronomical Twilight
Moon
Length of Visible Light
Length of Day
Tomorrow will be .
, % of the Moon is Illuminated

Today's Extremes

State Highs State Lows

Community

WunderPhotos

Upload Photos

1,814,944 photos uploaded!

WunderBlogs® & News

Nearby

Air Quality

  Air Quality AQ Index Pollutant
Not available.

Snow Depth

Station Depth Elevation

Earthquake Activity

City Distance Mag. Time & Date
Minimum magnitude displayed is 2.5.

Coastal Water Temperatures

Place Temperature

Stations

Nearby Weather Stations

Station Location Temp. Windchill Dew Point Humidity Wind Precip. Elev Updated Type